Pattison, Mississippi
Current Conditions -  °F | °C
As of 9:35 AM on Thursday 30 Oct 2014 (Local Time) from KVKS Reporting Station
Clear Clear  
Wind Chill: 59°   Ceiling: Unl
Heat Index: 59°   Visibility: 10mi
Dew Point: 52°   Wind: 0mph
Humidity: 77%   Direction: NA
Pressure: 30.18"   Gusts: NA
Location:  31.89°N, 90.89°W
Report Text: KVKS 301435Z AUTO 00000KT 10SM CLR 15/11 A3018 RMK A01
Loading
Personal Weather Stations






























Interactive Weather Map
Tropical Storm Tracking
New forecast layout! Learn more

10-Day Weather Forecast

Advertisements
Track Severe Weather on mobile